Weather at Aeròdrom del Pla de Bages

Public forecast

Using degrees Celsius for public forecast. Weather courtesy of forecast.io.

Closest aviation weather report (METAR) to Aeròdrom del Pla de Bages

Closest report is Sabadell Airport, 18.2 nm (33.7 km) SSE. Retrieved 2020/09/20 22:30 UTC (0 seconds ago):

LELL 202230Z AUTO VRB02KT CAVOK 20/16 Q1016

Closest aviation forecast (TAF) to Aeròdrom del Pla de Bages

Forecast is more than 6 hours old.

Closest forecast is Sabadell Airport, 18.2 nm (33.7 km) SSE. Retrieved 2020/09/20 15:10 UTC (7 hours ago):

TAF LELL 202003Z 2015/2115 CNL